Time,TemperatureF,DewpointF,PressureIn,WindDirection,WindDirectionDegrees,WindSpeedMPH,WindSpeedGustMPH,Humidity,HourlyPrecipIn,Conditions,Clouds,dailyrainin,SoftwareType,DateUTC
2013-05-16 00:02:00,56.0,46.0,29.89,WNW,302,0.0,0.0,68,0.00,,,0.00,,2013-05-16 05:02:00,
2013-05-16 00:12:00,56.0,46.0,29.89,WNW,302,0.0,0.0,68,0.00,,,0.00,,2013-05-16 05:12:00,
2013-05-16 00:22:00,55.0,45.0,29.89,WNW,302,0.0,0.0,68,0.00,,,0.00,,2013-05-16 05:22:00,
2013-05-16 00:32:00,55.0,45.0,29.90,WNW,302,0.0,0.0,70,0.00,,,0.00,,2013-05-16 05:32:00,
2013-05-16 00:42:00,55.0,45.0,29.90,WNW,302,0.0,0.0,70,0.00,,,0.00,,2013-05-16 05:42:00,
2013-05-16 00:52:00,54.0,45.0,29.90,WNW,302,0.0,0.0,71,0.00,,,0.00,,2013-05-16 05:52:00,
2013-05-16 01:01:00,54.0,45.0,29.90,WNW,302,0.0,0.0,71,0.00,,,0.00,,2013-05-16 06:01:00,
2013-05-16 01:12:00,54.0,45.0,29.90,WNW,302,0.0,0.0,71,0.00,,,0.00,,2013-05-16 06:12:00,
2013-05-16 01:22:00,54.0,45.0,29.90,WNW,302,0.0,0.0,71,0.00,,,0.00,,2013-05-16 06:22:00,
2013-05-16 01:33:00,54.0,45.0,29.90,WNW,302,0.0,0.0,71,0.00,,,0.00,,2013-05-16 06:33:00,
2013-05-16 01:43:00,54.0,45.0,29.90,WNW,302,0.0,0.0,71,0.00,,,0.00,,2013-05-16 06:43:00,
2013-05-16 01:52:00,53.0,44.0,29.90,WNW,302,0.0,0.0,72,0.00,,,0.00,,2013-05-16 06:52:00,
2013-05-16 02:02:00,52.0,44.0,29.90,WNW,302,0.0,0.0,74,0.00,,,0.00,,2013-05-16 07:02:00,
2013-05-16 02:12:00,52.0,44.0,29.90,WNW,302,0.0,0.0,74,0.00,,,0.00,,2013-05-16 07:12:00,
2013-05-16 02:24:00,53.0,45.0,29.90,WNW,302,0.0,0.0,74,0.00,,,0.00,,2013-05-16 07:24:00,
2013-05-16 02:34:00,54.0,45.0,29.90,WNW,302,1.0,3.0,72,0.00,,,0.00,,2013-05-16 07:34:00,
2013-05-16 02:44:00,54.0,45.0,29.90,WNW,302,1.0,3.0,72,0.00,,,0.00,,2013-05-16 07:44:00,
2013-05-16 02:54:00,52.0,44.0,29.91,WNW,302,1.0,2.0,75,0.00,,,0.00,,2013-05-16 07:54:00,
2013-05-16 03:03:00,51.0,44.0,29.91,WNW,302,0.0,1.0,77,0.00,,,0.00,,2013-05-16 08:03:00,
2013-05-16 03:13:00,51.0,44.0,29.91,WNW,302,0.0,1.0,77,0.00,,,0.00,,2013-05-16 08:13:00,
2013-05-16 03:23:00,51.0,44.0,29.91,WNW,302,0.0,2.0,77,0.00,,,0.00,,2013-05-16 08:23:00,
2013-05-16 03:34:00,51.0,44.0,29.91,WNW,302,1.0,2.0,77,0.00,,,0.00,,2013-05-16 08:34:00,
2013-05-16 03:44:00,51.0,44.0,29.91,WNW,302,1.0,2.0,77,0.00,,,0.00,,2013-05-16 08:44:00,
2013-05-16 03:54:00,51.0,44.0,29.92,WNW,302,0.0,2.0,77,0.00,,,0.00,,2013-05-16 08:54:00,
2013-05-16 04:04:00,51.0,44.0,29.92,WNW,302,0.0,2.0,76,0.00,,,0.00,,2013-05-16 09:04:00,
2013-05-16 04:14:00,52.0,44.0,29.92,WNW,302,0.0,1.0,74,0.00,,,0.00,,2013-05-16 09:14:00,
2013-05-16 04:24:00,52.0,44.0,29.92,WNW,302,0.0,1.0,74,0.00,,,0.00,,2013-05-16 09:24:00,
2013-05-16 04:35:00,52.0,44.0,29.92,WNW,302,0.0,1.0,74,0.00,,,0.00,,2013-05-16 09:35:00,
2013-05-16 04:45:00,52.0,44.0,29.92,WNW,302,0.0,1.0,74,0.00,,,0.00,,2013-05-16 09:45:00,
2013-05-16 04:55:00,52.0,44.0,29.93,WNW,302,0.0,1.0,74,0.00,,,0.00,,2013-05-16 09:55:00,
2013-05-16 05:05:00,52.0,44.0,29.93,WNW,302,0.0,0.0,75,0.00,,,0.00,,2013-05-16 10:05:00,
2013-05-16 05:15:00,52.0,44.0,29.93,WNW,302,0.0,0.0,75,0.00,,,0.00,,2013-05-16 10:15:00,
2013-05-16 05:24:00,52.0,45.0,29.93,WNW,302,0.0,0.0,76,0.00,,,0.00,,2013-05-16 10:24:00,
2013-05-16 05:36:00,51.0,44.0,29.93,WNW,302,0.0,0.0,77,0.00,,,0.00,,2013-05-16 10:36:00,
2013-05-16 05:45:00,51.0,44.0,29.93,WNW,302,0.0,0.0,77,0.00,,,0.00,,2013-05-16 10:45:00,
2013-05-16 05:56:00,51.0,44.0,29.94,WNW,302,0.0,0.0,77,0.00,,,0.00,,2013-05-16 10:56:00,
2013-05-16 06:05:00,51.0,44.0,29.94,WNW,302,0.0,0.0,78,0.00,,,0.00,,2013-05-16 11:05:00,
2013-05-16 06:14:00,51.0,44.0,29.94,WNW,302,0.0,0.0,78,0.00,,,0.00,,2013-05-16 11:14:00,
2013-05-16 06:25:00,51.0,45.0,29.95,WNW,302,0.0,1.0,79,0.00,,,0.00,,2013-05-16 11:25:00,
2013-05-16 06:35:00,51.0,45.0,29.96,WNW,302,0.0,0.0,81,0.00,,,0.00,,2013-05-16 11:35:00,
2013-05-16 06:46:00,51.0,45.0,29.96,WNW,302,0.0,0.0,81,0.00,,,0.00,,2013-05-16 11:46:00,
2013-05-16 06:56:00,51.0,45.0,29.96,WNW,302,0.0,1.0,80,0.00,,,0.00,,2013-05-16 11:56:00,
2013-05-16 07:06:00,53.0,46.0,29.96,WNW,302,0.0,0.0,78,0.00,,,0.00,,2013-05-16 12:06:00,
2013-05-16 07:13:00,53.0,46.0,29.96,WNW,302,0.0,0.0,78,0.00,,,0.00,,2013-05-16 12:13:00,
2013-05-16 07:23:00,54.0,47.0,29.97,WNW,302,0.0,2.0,78,0.00,,,0.00,,2013-05-16 12:23:00,
2013-05-16 07:34:00,55.0,48.0,29.97,West,279,0.0,2.0,78,0.00,,,0.00,,2013-05-16 12:34:00,
2013-05-16 07:45:00,55.0,48.0,29.97,West,279,0.0,2.0,78,0.00,,,0.00,,2013-05-16 12:45:00,
2013-05-16 07:53:00,56.0,49.0,29.97,West,279,0.0,2.0,78,0.00,,,0.00,,2013-05-16 12:53:00,
2013-05-16 08:04:00,58.0,50.0,29.97,West,279,0.0,2.0,74,0.00,,,0.00,,2013-05-16 13:04:00,
2013-05-16 08:12:00,58.0,50.0,29.97,West,279,0.0,2.0,74,0.00,,,0.00,,2013-05-16 13:12:00,
2013-05-16 08:26:00,61.0,52.0,29.98,West,278,3.0,3.0,72,0.00,,,0.00,,2013-05-16 13:26:00,
2013-05-16 08:35:00,63.0,51.0,29.98,West,278,1.0,3.0,66,0.00,,,0.00,,2013-05-16 13:35:00,
2013-05-16 08:43:00,63.0,51.0,29.98,West,278,1.0,3.0,66,0.00,,,0.00,,2013-05-16 13:43:00,
2013-05-16 08:55:00,65.0,52.0,29.98,WSW,248,1.0,5.0,63,0.00,,,0.00,,2013-05-16 13:55:00,
2013-05-16 09:05:00,67.0,52.0,29.98,West,269,3.0,5.0,59,0.00,,,0.00,,2013-05-16 14:05:00,
2013-05-16 09:16:00,67.0,52.0,29.98,West,269,3.0,5.0,59,0.00,,,0.00,,2013-05-16 14:16:00,
2013-05-16 09:23:00,68.0,51.0,29.98,West,261,2.0,6.0,54,0.00,,,0.00,,2013-05-16 14:23:00,
2013-05-16 09:37:00,70.0,52.0,29.98,West,273,2.0,5.0,52,0.00,,,0.00,,2013-05-16 14:37:00,
2013-05-16 09:47:00,70.0,52.0,29.98,West,273,2.0,5.0,52,0.00,,,0.00,,2013-05-16 14:47:00,
2013-05-16 09:55:00,71.0,50.0,29.98,West,259,0.0,4.0,48,0.00,,,0.00,,2013-05-16 14:55:00,
2013-05-16 10:08:00,72.0,49.0,29.98,WSW,252,2.0,5.0,44,0.00,,,0.00,,2013-05-16 15:08:00,
2013-05-16 10:17:00,72.0,49.0,29.98,WSW,252,2.0,5.0,44,0.00,,,0.00,,2013-05-16 15:17:00,
2013-05-16 10:28:00,73.0,49.0,29.97,WNW,284,3.0,7.0,42,0.00,,,0.00,,2013-05-16 15:28:00,
2013-05-16 10:40:00,73.0,48.0,29.97,WNW,290,4.0,7.0,41,0.00,,,0.00,,2013-05-16 15:40:00,
2013-05-16 10:50:00,75.0,49.0,29.97,NW,319,4.0,5.0,40,0.00,,,0.00,,2013-05-16 15:50:00,
2013-05-16 11:00:00,75.0,49.0,29.97,NW,319,4.0,5.0,40,0.00,,,0.00,,2013-05-16 16:00:00,
2013-05-16 11:09:00,75.0,49.0,29.98,NW,320,5.0,6.0,40,0.00,,,0.00,,2013-05-16 16:09:00,
2013-05-16 11:19:00,75.0,49.0,29.98,NW,320,5.0,6.0,40,0.00,,,0.00,,2013-05-16 16:19:00,
2013-05-16 11:30:00,75.0,49.0,29.97,NW,321,2.0,6.0,40,0.00,,,0.00,,2013-05-16 16:30:00,
2013-05-16 11:40:00,76.0,-99.9,29.97,WSW,240,2.0,5.0,39,0.00,,,0.00,,2013-05-16 16:40:00,
2013-05-16 11:50:00,76.0,49.0,29.97,WSW,240,2.0,5.0,39,0.00,,,0.00,,2013-05-16 16:50:00,
2013-05-16 12:01:00,77.0,50.0,29.97,North,10,3.0,5.0,39,0.00,,,0.00,,2013-05-16 17:01:00,
2013-05-16 12:10:00,77.0,49.0,29.97,WNW,283,2.0,7.0,38,0.00,,,0.00,,2013-05-16 17:10:00,
2013-05-16 12:20:00,77.0,49.0,29.97,WNW,283,2.0,7.0,38,0.00,,,0.00,,2013-05-16 17:20:00,
2013-05-16 12:30:00,78.0,50.0,29.96,SW,221,0.0,3.0,38,0.00,,,0.00,,2013-05-16 17:30:00,
2013-05-16 12:40:00,78.0,50.0,29.96,NNW,333,3.0,9.0,38,0.00,,,0.00,,2013-05-16 17:40:00,
2013-05-16 12:50:00,78.0,-99.9,29.95,SW,232,0.0,6.0,38,0.00,,,0.00,,2013-05-16 17:50:00,
2013-05-16 13:00:00,78.0,-99.9,29.95,SW,232,0.0,6.0,38,0.00,,,0.00,,2013-05-16 18:00:00,
2013-05-16 13:10:00,80.0,51.0,29.95,WSW,255,2.0,5.0,36,0.00,,,0.00,,2013-05-16 18:10:00,
2013-05-16 13:20:00,80.0,51.0,29.95,WSW,255,2.0,5.0,36,0.00,,,0.00,,2013-05-16 18:20:00,
2013-05-16 13:30:00,-999.0,-99.9,29.94,NNE,26,6.0,9.0,37,0.00,,,0.00,,2013-05-16 18:30:00,
2013-05-16 13:40:00,-999.0,-99.9,29.94,NW,311,5.0,7.0,37,0.00,,,0.00,,2013-05-16 18:40:00,
2013-05-16 13:50:00,-999.0,-99.9,29.94,NW,311,5.0,7.0,37,0.00,,,0.00,,2013-05-16 18:50:00,
2013-05-16 14:00:00,-999.0,-99.9,29.94,North,10,2.0,9.0,37,0.00,,,0.00,,2013-05-16 19:00:00,
2013-05-16 14:10:00,79.0,50.0,29.94,East,101,1.0,5.0,37,0.00,,,0.00,,2013-05-16 19:10:00,
2013-05-16 14:20:00,79.0,50.0,29.94,East,101,1.0,5.0,37,0.00,,,0.00,,2013-05-16 19:20:00,
2013-05-16 14:30:00,80.0,50.0,29.94,WNW,303,2.0,5.0,35,0.00,,,0.00,,2013-05-16 19:30:00,
2013-05-16 14:40:00,81.0,-99.9,29.94,NNW,327,5.0,8.0,34,0.00,,,0.00,,2013-05-16 19:40:00,
2013-05-16 14:50:00,-999.0,-99.9,29.94,NNW,327,5.0,8.0,34,0.00,,,0.00,,2013-05-16 19:50:00,
2013-05-16 15:00:00,82.0,-99.9,29.94,NNW,340,3.0,6.0,33,0.00,,,0.00,,2013-05-16 20:00:00,
2013-05-16 15:10:00,-999.0,-99.9,29.94,NW,316,1.0,7.0,33,0.00,,,0.00,,2013-05-16 20:10:00,
2013-05-16 15:20:00,81.0,-99.9,29.93,East,94,3.0,8.0,37,0.00,,,0.00,,2013-05-16 20:20:00,
2013-05-16 15:30:00,81.0,52.0,29.93,East,94,3.0,8.0,37,0.00,,,0.00,,2013-05-16 20:30:00,
2013-05-16 15:40:00,-999.0,-99.9,29.93,ESE,110,2.0,12.0,40,0.00,,,0.00,,2013-05-16 20:40:00,
2013-05-16 15:50:00,79.0,54.0,29.93,ESE,122,3.0,13.0,42,0.00,,,0.00,,2013-05-16 20:50:00,
2013-05-16 16:00:00,79.0,-99.9,29.93,ESE,122,3.0,13.0,42,0.00,,,0.00,,2013-05-16 21:00:00,
2013-05-16 16:10:00,77.0,-99.9,29.94,SSE,163,7.0,14.0,43,0.00,,,0.00,,2013-05-16 21:10:00,
2013-05-16 16:20:00,77.0,-99.9,29.94,SSE,163,7.0,14.0,43,0.00,,,0.00,,2013-05-16 21:20:00,
2013-05-16 16:29:00,76.0,52.0,29.93,ESE,112,10.0,15.0,44,0.00,,,0.00,,2013-05-16 21:29:00,
2013-05-16 16:38:00,75.0,52.0,29.94,NE,34,3.0,15.0,45,0.00,,,0.00,,2013-05-16 21:38:00,
2013-05-16 16:50:00,75.0,-99.9,29.94,NE,34,3.0,15.0,45,0.00,,,0.00,,2013-05-16 21:50:00,
2013-05-16 17:00:00,-999.0,-99.9,29.94,East,94,1.0,14.0,46,0.00,,,0.00,,2013-05-16 22:00:00,
2013-05-16 17:08:00,75.0,52.0,29.94,NNE,24,4.0,13.0,44,0.00,,,0.00,,2013-05-16 22:08:00,
2013-05-16 17:20:00,75.0,52.0,29.94,NNE,24,4.0,13.0,44,0.00,,,0.00,,2013-05-16 22:20:00,
2013-05-16 17:30:00,75.0,52.0,29.95,SE,128,3.0,9.0,44,0.00,,,0.00,,2013-05-16 22:30:00,
2013-05-16 17:40:00,74.0,50.0,29.95,East,96,8.0,12.0,43,0.00,,,0.00,,2013-05-16 22:40:00,
2013-05-16 17:50:00,74.0,50.0,29.95,East,96,8.0,12.0,43,0.00,,,0.00,,2013-05-16 22:50:00,
2013-05-16 18:00:00,73.0,49.0,29.95,ESE,119,8.0,10.0,43,0.00,,,0.00,,2013-05-16 23:00:00,
2013-05-16 18:06:00,72.0,48.0,29.96,SE,139,7.0,13.0,43,0.00,,,0.00,,2013-05-16 23:06:00,
2013-05-16 18:16:00,72.0,48.0,29.96,SE,139,7.0,13.0,43,0.00,,,0.00,,2013-05-16 23:16:00,
2013-05-16 18:24:00,72.0,48.0,29.96,SE,140,3.0,13.0,43,0.00,,,0.00,,2013-05-16 23:24:00,
2013-05-16 18:35:00,72.0,48.0,29.96,SE,131,6.0,11.0,42,0.00,,,0.00,,2013-05-16 23:35:00,
2013-05-16 18:45:00,72.0,48.0,29.96,SE,131,6.0,11.0,42,0.00,,,0.00,,2013-05-16 23:45:00,
2013-05-16 18:54:00,70.0,46.0,29.96,SE,131,3.0,15.0,43,0.00,,,0.00,,2013-05-16 23:54:00,
2013-05-16 19:02:00,69.0,45.0,29.97,SE,135,5.0,14.0,42,0.00,,,0.00,,2013-05-17 00:02:00,
2013-05-16 19:13:00,69.0,45.0,29.97,SE,135,5.0,14.0,42,0.00,,,0.00,,2013-05-17 00:13:00,
2013-05-16 19:22:00,68.0,45.0,29.97,SE,126,6.0,9.0,44,0.00,,,0.00,,2013-05-17 00:22:00,
2013-05-16 19:33:00,67.0,44.0,29.98,SE,141,5.0,11.0,43,0.00,,,0.00,,2013-05-17 00:33:00,
2013-05-16 19:43:00,67.0,44.0,29.98,SE,141,5.0,11.0,43,0.00,,,0.00,,2013-05-17 00:43:00,
2013-05-16 19:52:00,66.0,43.0,29.98,ESE,118,3.0,13.0,44,0.00,,,0.00,,2013-05-17 00:52:00,
2013-05-16 20:03:00,66.0,45.0,29.98,SE,130,4.0,11.0,46,0.00,,,0.00,,2013-05-17 01:03:00,
2013-05-16 20:12:00,66.0,45.0,29.98,SE,130,4.0,11.0,46,0.00,,,0.00,,2013-05-17 01:12:00,
2013-05-16 20:23:00,65.0,44.0,29.99,SE,130,3.0,7.0,46,0.00,,,0.00,,2013-05-17 01:23:00,
2013-05-16 20:32:00,64.0,42.0,30.00,SE,138,2.0,10.0,45,0.00,,,0.00,,2013-05-17 01:32:00,
2013-05-16 20:43:00,64.0,42.0,30.00,SE,138,2.0,10.0,45,0.00,,,0.00,,2013-05-17 01:43:00,
2013-05-16 20:52:00,64.0,42.0,30.01,ESE,121,8.0,9.0,45,0.00,,,0.00,,2013-05-17 01:52:00,
2013-05-16 21:02:00,63.0,41.0,30.02,ESE,116,2.0,9.0,45,0.00,,,0.00,,2013-05-17 02:02:00,
2013-05-16 21:11:00,63.0,41.0,30.02,ESE,116,2.0,9.0,45,0.00,,,0.00,,2013-05-17 02:11:00,
2013-05-16 21:21:00,62.0,43.0,30.02,ESE,116,0.0,4.0,50,0.00,,,0.00,,2013-05-17 02:21:00,
2013-05-16 21:32:00,62.0,42.0,30.03,ENE,65,1.0,5.0,47,0.00,,,0.00,,2013-05-17 02:32:00,
2013-05-16 21:42:00,62.0,42.0,30.03,ENE,65,1.0,5.0,47,0.00,,,0.00,,2013-05-17 02:42:00,
2013-05-16 21:52:00,62.0,40.0,30.03,ESE,115,1.0,7.0,45,0.00,,,0.00,,2013-05-17 02:52:00,
2013-05-16 22:02:00,61.0,42.0,30.03,South,171,0.0,4.0,49,0.00,,,0.00,,2013-05-17 03:02:00,
2013-05-16 22:11:00,61.0,42.0,30.03,South,171,0.0,4.0,49,0.00,,,0.00,,2013-05-17 03:11:00,
2013-05-16 22:22:00,61.0,41.0,30.03,East,90,2.0,5.0,48,0.00,,,0.00,,2013-05-17 03:22:00,
2013-05-16 22:34:00,60.0,37.0,30.04,ENE,58,2.0,5.0,43,0.00,,,0.00,,2013-05-17 03:34:00,
2013-05-16 22:43:00,60.0,37.0,30.04,ENE,58,2.0,5.0,43,0.00,,,0.00,,2013-05-17 03:43:00,
2013-05-16 22:53:00,60.0,38.0,30.04,East,80,1.0,5.0,44,0.00,,,0.00,,2013-05-17 03:53:00,
2013-05-16 23:02:00,60.0,37.0,30.04,ESE,109,2.0,4.0,43,0.00,,,0.00,,2013-05-17 04:02:00,
2013-05-16 23:13:00,60.0,37.0,30.04,ESE,109,2.0,4.0,43,0.00,,,0.00,,2013-05-17 04:13:00,
2013-05-16 23:23:00,60.0,37.0,30.04,SSE,152,0.0,3.0,43,0.00,,,0.00,,2013-05-17 04:23:00,
2013-05-16 23:33:00,59.0,36.0,30.04,SSE,152,0.0,3.0,42,0.00,,,0.00,,2013-05-17 04:33:00,
2013-05-16 23:43:00,59.0,36.0,30.04,SSE,152,0.0,3.0,42,0.00,,,0.00,,2013-05-17 04:43:00,
2013-05-16 23:53:00,59.0,37.0,30.04,SE,145,5.0,5.0,44,0.00,,,0.00,,2013-05-17 04:53:00,